Terminal Aerodrome Forecast
Issued by NWS

Current Version | Previous Version | Graphics & Text | Print | Product List | Glossary On
Versions: 1 2 3 4 5 6 7 8 9 10 11 12 13 14 15 16 17 18 19 20 21 22 23
000
FTUS41 KILN 261700
TAFLUK
TAF
KLUK 261721Z 2618/2718 VRB03KT P6SM BKN028
     FM270000 35004KT P6SM SCT028
     FM270600 32005KT P6SM BKN018
     FM271500 31010KT P6SM BKN025=

USA.gov is the U.S. government's official web portal to all federal, state and local government web resources and services.